sensor_id;sensor_type;location;lat;lon;timestamp;pressure;altitude;pressure_sealevel;temperature;humidity
48553;BME280;34335;51.566;6.994;2022-07-23T00:00:17;101262.94;;;18.20;71.40
48553;BME280;34335;51.566;6.994;2022-07-23T00:02:43;101263.75;;;18.24;71.21
48553;BME280;34335;51.566;6.994;2022-07-23T00:05:09;101255.00;;;18.21;71.73
48553;BME280;34335;51.566;6.994;2022-07-23T00:07:34;101249.13;;;18.12;71.66
48553;BME280;34335;51.566;6.994;2022-07-23T00:09:59;101257.19;;;18.04;72.75
48553;BME280;34335;51.566;6.994;2022-07-23T00:12:25;101254.72;;;17.98;71.75
48553;BME280;34335;51.566;6.994;2022-07-23T00:14:50;101254.50;;;18.05;70.80
48553;BME280;34335;51.566;6.994;2022-07-23T00:17:16;101250.34;;;17.97;74.78
48553;BME280;34335;51.566;6.994;2022-07-23T00:19:41;101249.31;;;17.63;77.81
48553;BME280;34335;51.566;6.994;2022-07-23T00:22:07;101247.84;;;17.89;74.29
48553;BME280;34335;51.566;6.994;2022-07-23T00:24:32;101253.75;;;17.59;76.91
48553;BME280;34335;51.566;6.994;2022-07-23T00:26:57;101250.84;;;17.73;76.04
48553;BME280;34335;51.566;6.994;2022-07-23T00:29:22;101248.66;;;17.52;76.42
48553;BME280;34335;51.566;6.994;2022-07-23T00:31:48;101250.94;;;17.69;74.70
48553;BME280;34335;51.566;6.994;2022-07-23T00:34:13;101246.66;;;17.63;73.57
48553;BME280;34335;51.566;6.994;2022-07-23T00:36:38;101247.88;;;17.48;82.66
48553;BME280;34335;51.566;6.994;2022-07-23T00:39:04;101243.16;;;17.63;76.55
48553;BME280;34335;51.566;6.994;2022-07-23T00:41:30;101247.31;;;17.74;73.18
48553;BME280;34335;51.566;6.994;2022-07-23T00:43:55;101250.78;;;17.75;72.78
48553;BME280;34335;51.566;6.994;2022-07-23T00:46:21;101249.06;;;17.74;71.65
48553;BME280;34335;51.566;6.994;2022-07-23T00:48:48;101252.50;;;17.35;77.10
48553;BME280;34335;51.566;6.994;2022-07-23T00:51:15;101255.91;;;17.40;75.18
48553;BME280;34335;51.566;6.994;2022-07-23T00:53:41;101255.94;;;17.39;76.31
48553;BME280;34335;51.566;6.994;2022-07-23T00:56:06;101248.47;;;17.61;73.41
48553;BME280;34335;51.566;6.994;2022-07-23T00:58:34;101245.66;;;17.69;72.92
48553;BME280;34335;51.566;6.994;2022-07-23T01:01:00;101245.66;;;17.69;72.41
48553;BME280;34335;51.566;6.994;2022-07-23T01:03:25;101246.88;;;17.52;74.64
48553;BME280;34335;51.566;6.994;2022-07-23T01:05:50;101247.88;;;17.47;76.40
48553;BME280;34335;51.566;6.994;2022-07-23T01:08:16;101254.72;;;17.55;73.06
48553;BME280;34335;51.566;6.994;2022-07-23T01:10:41;101254.81;;;17.51;73.56
48553;BME280;34335;51.566;6.994;2022-07-23T01:13:08;101246.94;;;17.51;73.87
48553;BME280;34335;51.566;6.994;2022-07-23T01:15:36;101247.38;;;17.29;79.18
48553;BME280;34335;51.566;6.994;2022-07-23T01:18:02;101244.72;;;17.31;75.45
48553;BME280;34335;51.566;6.994;2022-07-23T01:20:28;101246.44;;;17.32;74.11
48553;BME280;34335;51.566;6.994;2022-07-23T01:22:53;101256.22;;;17.25;75.84
48553;BME280;34335;51.566;6.994;2022-07-23T01:25:19;101245.63;;;17.28;73.39
48553;BME280;34335;51.566;6.994;2022-07-23T01:27:45;101249.84;;;17.37;72.52
48553;BME280;34335;51.566;6.994;2022-07-23T01:30:11;101253.22;;;17.42;72.46
48553;BME280;34335;51.566;6.994;2022-07-23T01:32:37;101256.94;;;17.33;74.82
48553;BME280;34335;51.566;6.994;2022-07-23T01:35:04;101245.53;;;17.34;74.72
48553;BME280;34335;51.566;6.994;2022-07-23T01:37:29;101252.56;;;17.32;73.86
48553;BME280;34335;51.566;6.994;2022-07-23T01:39:54;101250.84;;;17.31;73.99
48553;BME280;34335;51.566;6.994;2022-07-23T01:42:20;101249.97;;;17.31;73.47
48553;BME280;34335;51.566;6.994;2022-07-23T01:44:45;101243.91;;;17.27;73.42
48553;BME280;34335;51.566;6.994;2022-07-23T01:47:10;101246.50;;;17.28;73.19
48553;BME280;34335;51.566;6.994;2022-07-23T01:49:35;101231.69;;;17.26;73.19
48553;BME280;34335;51.566;6.994;2022-07-23T01:52:02;101233.38;;;17.27;73.34
48553;BME280;34335;51.566;6.994;2022-07-23T01:54:32;101232.59;;;17.23;73.38
48553;BME280;34335;51.566;6.994;2022-07-23T01:56:58;101231.69;;;17.24;73.08
48553;BME280;34335;51.566;6.994;2022-07-23T01:59:23;101235.19;;;17.25;73.61
48553;BME280;34335;51.566;6.994;2022-07-23T02:01:49;101233.50;;;17.21;73.45
48553;BME280;34335;51.566;6.994;2022-07-23T02:04:18;101244.16;;;17.15;75.58
48553;BME280;34335;51.566;6.994;2022-07-23T02:06:44;101242.56;;;17.06;74.44
48553;BME280;34335;51.566;6.994;2022-07-23T02:09:09;101241.69;;;17.07;73.57
48553;BME280;34335;51.566;6.994;2022-07-23T02:11:35;101244.34;;;17.05;78.46
48553;BME280;34335;51.566;6.994;2022-07-23T02:14:00;101238.19;;;17.05;74.03
48553;BME280;34335;51.566;6.994;2022-07-23T02:16:25;101234.78;;;17.01;74.12
48553;BME280;34335;51.566;6.994;2022-07-23T02:18:51;101224.25;;;17.01;74.41
48553;BME280;34335;51.566;6.994;2022-07-23T02:21:16;101227.78;;;17.02;73.65
48553;BME280;34335;51.566;6.994;2022-07-23T02:23:41;101226.09;;;16.97;74.37
48553;BME280;34335;51.566;6.994;2022-07-23T02:26:06;101225.25;;;16.97;74.46
48553;BME280;34335;51.566;6.994;2022-07-23T02:28:32;101228.78;;;16.93;73.85
48553;BME280;34335;51.566;6.994;2022-07-23T02:30:57;101236.31;;;16.63;78.21
48553;BME280;34335;51.566;6.994;2022-07-23T02:33:23;101241.44;;;16.69;75.54
48553;BME280;34335;51.566;6.994;2022-07-23T02:35:48;101239.47;;;16.33;82.40
48553;BME280;34335;51.566;6.994;2022-07-23T02:38:13;101231.34;;;16.46;77.03
48553;BME280;34335;51.566;6.994;2022-07-23T02:40:39;101232.03;;;16.57;75.53
48553;BME280;34335;51.566;6.994;2022-07-23T02:43:04;101234.66;;;16.57;75.35
48553;BME280;34335;51.566;6.994;2022-07-23T02:45:29;101233.72;;;16.61;74.91
48553;BME280;34335;51.566;6.994;2022-07-23T02:47:55;101224.03;;;16.65;74.92
48553;BME280;34335;51.566;6.994;2022-07-23T02:50:20;101230.22;;;16.62;75.10
48553;BME280;34335;51.566;6.994;2022-07-23T02:52:45;101225.00;;;16.59;74.84
48553;BME280;34335;51.566;6.994;2022-07-23T02:55:11;101220.66;;;16.58;75.74
48553;BME280;34335;51.566;6.994;2022-07-23T02:57:37;101223.47;;;16.47;75.99
48553;BME280;34335;51.566;6.994;2022-07-23T03:00:04;101214.84;;;16.41;76.81
48553;BME280;34335;51.566;6.994;2022-07-23T03:02:30;101225.22;;;16.48;76.33
48553;BME280;34335;51.566;6.994;2022-07-23T03:04:55;101225.22;;;16.47;75.93
48553;BME280;34335;51.566;6.994;2022-07-23T03:07:20;101215.63;;;16.44;75.70
48553;BME280;34335;51.566;6.994;2022-07-23T03:09:46;101220.94;;;16.41;76.87
48553;BME280;34335;51.566;6.994;2022-07-23T03:12:11;101216.66;;;16.35;77.70
48553;BME280;34335;51.566;6.994;2022-07-23T03:14:36;101216.72;;;16.31;78.22
48553;BME280;34335;51.566;6.994;2022-07-23T03:17:02;101218.53;;;16.27;77.52
48553;BME280;34335;51.566;6.994;2022-07-23T03:19:27;101224.72;;;16.25;76.77
48553;BME280;34335;51.566;6.994;2022-07-23T03:21:52;101214.41;;;16.12;80.95
48553;BME280;34335;51.566;6.994;2022-07-23T03:24:17;101224.00;;;16.13;77.09
48553;BME280;34335;51.566;6.994;2022-07-23T03:26:43;101214.41;;;16.14;76.76
48553;BME280;34335;51.566;6.994;2022-07-23T03:29:09;101217.06;;;16.11;76.80
48553;BME280;34335;51.566;6.994;2022-07-23T03:31:34;101218.84;;;16.09;75.95
48553;BME280;34335;51.566;6.994;2022-07-23T03:34:00;101218.13;;;15.99;78.23
48553;BME280;34335;51.566;6.994;2022-07-23T03:36:26;101209.38;;;16.00;76.33
48553;BME280;34335;51.566;6.994;2022-07-23T03:38:52;101221.66;;;15.98;76.11
48553;BME280;34335;51.566;6.994;2022-07-23T03:41:18;101217.31;;;15.94;79.03
48553;BME280;34335;51.566;6.994;2022-07-23T03:43:44;101220.13;;;15.81;77.65
48553;BME280;34335;51.566;6.994;2022-07-23T03:46:09;101223.81;;;15.66;83.76
48553;BME280;34335;51.566;6.994;2022-07-23T03:48:35;101228.19;;;15.66;78.83
48553;BME280;34335;51.566;6.994;2022-07-23T03:51:00;101221.94;;;15.73;76.98
48553;BME280;34335;51.566;6.994;2022-07-23T03:53:25;101227.19;;;15.74;76.42
48553;BME280;34335;51.566;6.994;2022-07-23T03:55:51;101226.38;;;15.71;79.95
48553;BME280;34335;51.566;6.994;2022-07-23T03:58:16;101227.31;;;15.64;77.09
48553;BME280;34335;51.566;6.994;2022-07-23T04:00:41;101230.06;;;15.54;78.18
48553;BME280;34335;51.566;6.994;2022-07-23T04:03:07;101237.91;;;15.57;77.45
48553;BME280;34335;51.566;6.994;2022-07-23T04:05:32;101237.91;;;15.57;76.75
48553;BME280;34335;51.566;6.994;2022-07-23T04:07:57;101235.31;;;15.56;76.12
48553;BME280;34335;51.566;6.994;2022-07-23T04:10:23;101241.44;;;15.53;76.38
48553;BME280;34335;51.566;6.994;2022-07-23T04:12:48;101239.72;;;15.52;76.29
48553;BME280;34335;51.566;6.994;2022-07-23T04:15:13;101238.03;;;15.48;76.45
48553;BME280;34335;51.566;6.994;2022-07-23T04:17:39;101241.53;;;15.47;76.91
48553;BME280;34335;51.566;6.994;2022-07-23T04:20:05;101248.53;;;15.45;76.71
48553;BME280;34335;51.566;6.994;2022-07-23T04:22:30;101257.31;;;15.42;76.44
48553;BME280;34335;51.566;6.994;2022-07-23T04:24:55;101245.13;;;15.40;76.42
48553;BME280;34335;51.566;6.994;2022-07-23T04:27:21;101244.31;;;15.36;77.26
48553;BME280;34335;51.566;6.994;2022-07-23T04:29:46;101248.72;;;15.33;77.26
48553;BME280;34335;51.566;6.994;2022-07-23T04:32:11;101247.88;;;15.29;80.79
48553;BME280;34335;51.566;6.994;2022-07-23T04:34:36;101246.13;;;15.30;76.99
48553;BME280;34335;51.566;6.994;2022-07-23T04:37:02;101259.19;;;15.31;76.65
48553;BME280;34335;51.566;6.994;2022-07-23T04:39:27;101267.09;;;15.30;76.90
48553;BME280;34335;51.566;6.994;2022-07-23T04:41:52;101267.09;;;15.30;76.92
48553;BME280;34335;51.566;6.994;2022-07-23T04:44:18;101255.75;;;15.27;76.89
48553;BME280;34335;51.566;6.994;2022-07-23T04:46:43;101261.00;;;15.26;78.78
48553;BME280;34335;51.566;6.994;2022-07-23T04:49:08;101261.00;;;15.27;77.29
48553;BME280;34335;51.566;6.994;2022-07-23T04:51:34;101260.97;;;15.31;77.94
48553;BME280;34335;51.566;6.994;2022-07-23T04:53:59;101268.81;;;15.31;77.89
48553;BME280;34335;51.566;6.994;2022-07-23T04:56:24;101272.25;;;15.36;80.82
48553;BME280;34335;51.566;6.994;2022-07-23T04:58:49;101266.16;;;15.32;79.19
48553;BME280;34335;51.566;6.994;2022-07-23T05:01:15;101274.09;;;15.27;85.01
48553;BME280;34335;51.566;6.994;2022-07-23T05:03:40;101269.69;;;15.30;80.30
48553;BME280;34335;51.566;6.994;2022-07-23T05:06:05;101270.56;;;15.32;81.44
48553;BME280;34335;51.566;6.994;2022-07-23T05:08:31;101266.09;;;15.40;80.61
48553;BME280;34335;51.566;6.994;2022-07-23T05:10:57;101268.69;;;15.43;82.12
48553;BME280;34335;51.566;6.994;2022-07-23T05:13:22;101277.38;;;15.45;81.41
48553;BME280;34335;51.566;6.994;2022-07-23T05:15:47;101278.31;;;15.41;85.87
48553;BME280;34335;51.566;6.994;2022-07-23T05:18:13;101291.34;;;15.44;84.87
48553;BME280;34335;51.566;6.994;2022-07-23T05:20:38;101291.25;;;15.55;82.74
48553;BME280;34335;51.566;6.994;2022-07-23T05:23:03;101294.75;;;15.54;84.73
48553;BME280;34335;51.566;6.994;2022-07-23T05:25:29;101283.13;;;15.75;82.57
48553;BME280;34335;51.566;6.994;2022-07-23T05:27:54;101281.25;;;15.83;82.54
48553;BME280;34335;51.566;6.994;2022-07-23T05:30:20;101282.06;;;15.90;82.72
48553;BME280;34335;51.566;6.994;2022-07-23T05:32:45;101277.78;;;15.83;84.16
48553;BME280;34335;51.566;6.994;2022-07-23T05:35:10;101285.66;;;15.83;83.70
48553;BME280;34335;51.566;6.994;2022-07-23T05:37:36;101291.75;;;15.86;83.55
48553;BME280;34335;51.566;6.994;2022-07-23T05:40:06;101295.06;;;16.01;83.77
48553;BME280;34335;51.566;6.994;2022-07-23T05:42:33;101295.78;;;16.11;83.82
48553;BME280;34335;51.566;6.994;2022-07-23T05:44:59;101303.47;;;16.22;84.10
48553;BME280;34335;51.566;6.994;2022-07-23T05:47:24;101298.13;;;16.29;84.18
48553;BME280;34335;51.566;6.994;2022-07-23T05:49:49;101309.31;;;16.41;84.56
48553;BME280;34335;51.566;6.994;2022-07-23T05:52:15;101297.81;;;16.49;84.54
48553;BME280;34335;51.566;6.994;2022-07-23T05:54:40;101302.09;;;16.55;83.86
48553;BME280;34335;51.566;6.994;2022-07-23T05:57:05;101306.44;;;16.58;83.83
48553;BME280;34335;51.566;6.994;2022-07-23T05:59:31;101301.94;;;16.64;84.15
48553;BME280;34335;51.566;6.994;2022-07-23T06:01:56;101300.03;;;16.74;83.57
48553;BME280;34335;51.566;6.994;2022-07-23T06:04:21;101302.69;;;16.73;82.80
48553;BME280;34335;51.566;6.994;2022-07-23T06:06:47;101295.53;;;16.81;83.22
48553;BME280;34335;51.566;6.994;2022-07-23T06:09:12;101304.81;;;17.02;84.02
48553;BME280;34335;51.566;6.994;2022-07-23T06:11:39;101305.38;;;17.20;84.74
48553;BME280;34335;51.566;6.994;2022-07-23T06:14:04;101313.41;;;17.12;85.90
48553;BME280;34335;51.566;6.994;2022-07-23T06:16:30;101303.34;;;17.34;85.57
48553;BME280;34335;51.566;6.994;2022-07-23T06:18:55;101307.72;;;17.34;85.26
48553;BME280;34335;51.566;6.994;2022-07-23T06:21:20;101299.84;;;17.35;86.12
48553;BME280;34335;51.566;6.994;2022-07-23T06:23:46;101307.50;;;17.46;88.00
48553;BME280;34335;51.566;6.994;2022-07-23T06:26:11;101313.78;;;17.37;88.05
48553;BME280;34335;51.566;6.994;2022-07-23T06:28:36;101318.50;;;17.65;87.07
48553;BME280;34335;51.566;6.994;2022-07-23T06:31:01;101320.84;;;17.79;86.57
48553;BME280;34335;51.566;6.994;2022-07-23T06:33:27;101322.47;;;17.85;86.22
48553;BME280;34335;51.566;6.994;2022-07-23T06:35:52;101329.91;;;17.66;85.42
48553;BME280;34335;51.566;6.994;2022-07-23T06:38:17;101331.81;;;18.01;86.06
48553;BME280;34335;51.566;6.994;2022-07-23T06:40:43;101327.19;;;18.11;85.89
48553;BME280;34335;51.566;6.994;2022-07-23T06:43:10;101332.53;;;18.08;84.72
48553;BME280;34335;51.566;6.994;2022-07-23T06:45:35;101335.56;;;18.30;83.32
48553;BME280;34335;51.566;6.994;2022-07-23T06:48:00;101334.56;;;18.34;82.79
48553;BME280;34335;51.566;6.994;2022-07-23T06:50:27;101332.31;;;18.55;82.95
48553;BME280;34335;51.566;6.994;2022-07-23T06:52:52;101335.63;;;18.63;82.49
48553;BME280;34335;51.566;6.994;2022-07-23T06:55:18;101332.28;;;18.57;83.12
48553;BME280;34335;51.566;6.994;2022-07-23T06:57:43;101337.25;;;18.33;82.02
48553;BME280;34335;51.566;6.994;2022-07-23T07:00:09;101340.66;;;17.96;82.61
48553;BME280;34335;51.566;6.994;2022-07-23T07:02:34;101338.00;;;18.74;82.69
48553;BME280;34335;51.566;6.994;2022-07-23T07:05:00;101345.13;;;18.33;81.34
48553;BME280;34335;51.566;6.994;2022-07-23T07:07:25;101342.56;;;18.30;81.81
48553;BME280;34335;51.566;6.994;2022-07-23T07:09:50;101340.06;;;18.61;83.36
48553;BME280;34335;51.566;6.994;2022-07-23T07:12:16;101335.44;;;18.71;80.79
48553;BME280;34335;51.566;6.994;2022-07-23T07:14:41;101341.91;;;18.58;81.16
48553;BME280;34335;51.566;6.994;2022-07-23T07:17:06;101339.59;;;19.16;82.04
48553;BME280;34335;51.566;6.994;2022-07-23T07:19:32;101342.59;;;19.67;79.59
48553;BME280;34335;51.566;6.994;2022-07-23T07:21:57;101342.94;;;18.88;77.72
48553;BME280;34335;51.566;6.994;2022-07-23T07:24:22;101341.59;;;19.06;78.65
48553;BME280;34335;51.566;6.994;2022-07-23T07:26:47;101351.09;;;18.77;78.29
48553;BME280;34335;51.566;6.994;2022-07-23T07:29:13;101337.03;;;19.46;80.39
48553;BME280;34335;51.566;6.994;2022-07-23T07:31:38;101347.66;;;19.10;78.15
48553;BME280;34335;51.566;6.994;2022-07-23T07:34:03;101357.25;;;18.78;78.09
48553;BME280;34335;51.566;6.994;2022-07-23T07:36:28;101347.91;;;19.34;77.13
48553;BME280;34335;51.566;6.994;2022-07-23T07:38:54;101350.69;;;19.60;77.65
48553;BME280;34335;51.566;6.994;2022-07-23T07:41:20;101356.06;;;20.19;76.49
48553;BME280;34335;51.566;6.994;2022-07-23T07:43:49;101350.88;;;19.54;74.54
48553;BME280;34335;51.566;6.994;2022-07-23T07:46:14;101353.28;;;20.22;76.77
48553;BME280;34335;51.566;6.994;2022-07-23T07:48:39;101361.34;;;19.89;74.87
48553;BME280;34335;51.566;6.994;2022-07-23T07:51:05;101362.53;;;20.07;73.17
48553;BME280;34335;51.566;6.994;2022-07-23T07:53:30;101353.66;;;20.66;73.48
48553;BME280;34335;51.566;6.994;2022-07-23T07:55:56;101370.56;;;20.34;71.29
48553;BME280;34335;51.566;6.994;2022-07-23T07:58:21;101359.50;;;20.49;74.64
48553;BME280;34335;51.566;6.994;2022-07-23T08:00:46;101362.22;;;21.01;70.41
48553;BME280;34335;51.566;6.994;2022-07-23T08:03:12;101369.72;;;21.14;69.45
48553;BME280;34335;51.566;6.994;2022-07-23T08:05:37;101373.00;;;21.46;70.42
48553;BME280;34335;51.566;6.994;2022-07-23T08:08:03;101375.41;;;20.48;71.35
48553;BME280;34335;51.566;6.994;2022-07-23T08:10:29;101374.28;;;21.09;69.97
48553;BME280;34335;51.566;6.994;2022-07-23T08:12:57;101386.13;;;20.70;64.73
48553;BME280;34335;51.566;6.994;2022-07-23T08:15:23;101389.63;;;20.99;69.50
48553;BME280;34335;51.566;6.994;2022-07-23T08:17:49;101389.09;;;21.40;67.28
48553;BME280;34335;51.566;6.994;2022-07-23T08:20:16;101386.56;;;20.84;67.99
48553;BME280;34335;51.566;6.994;2022-07-23T08:25:10;101382.88;;;21.15;66.58
48553;BME280;34335;51.566;6.994;2022-07-23T08:27:36;101393.06;;;20.74;66.89
48553;BME280;34335;51.566;6.994;2022-07-23T08:30:01;101397.38;;;20.48;68.22
48553;BME280;34335;51.566;6.994;2022-07-23T08:32:26;101384.94;;;21.83;67.73
48553;BME280;34335;51.566;6.994;2022-07-23T08:34:51;101392.59;;;21.40;65.29
48553;BME280;34335;51.566;6.994;2022-07-23T08:37:17;101397.59;;;21.50;65.88
48553;BME280;34335;51.566;6.994;2022-07-23T08:39:42;101387.31;;;21.66;68.23
48553;BME280;34335;51.566;6.994;2022-07-23T08:42:07;101390.59;;;22.44;67.40
48553;BME280;34335;51.566;6.994;2022-07-23T08:44:35;101386.38;;;22.60;62.70
48553;BME280;34335;51.566;6.994;2022-07-23T08:47:00;101391.19;;;22.72;62.85
48553;BME280;34335;51.566;6.994;2022-07-23T08:49:26;101394.03;;;22.68;61.42
48553;BME280;34335;51.566;6.994;2022-07-23T08:51:52;101390.63;;;22.42;63.40
48553;BME280;34335;51.566;6.994;2022-07-23T08:54:20;101393.38;;;21.19;62.56
48553;BME280;34335;51.566;6.994;2022-07-23T08:56:46;101401.78;;;22.04;62.31
48553;BME280;34335;51.566;6.994;2022-07-23T08:59:12;101396.44;;;20.79;64.13
48553;BME280;34335;51.566;6.994;2022-07-23T09:01:39;101393.75;;;22.30;66.83
48553;BME280;34335;51.566;6.994;2022-07-23T09:04:04;101389.69;;;21.97;60.20
48553;BME280;34335;51.566;6.994;2022-07-23T09:06:29;101401.19;;;22.44;58.76
48553;BME280;34335;51.566;6.994;2022-07-23T09:08:55;101393.91;;;21.79;58.32
48553;BME280;34335;51.566;6.994;2022-07-23T09:11:20;101394.94;;;22.67;62.42
48553;BME280;34335;51.566;6.994;2022-07-23T09:13:50;101399.13;;;22.72;59.70
48553;BME280;34335;51.566;6.994;2022-07-23T09:18:53;101392.75;;;22.77;57.03
48553;BME280;34335;51.566;6.994;2022-07-23T09:21:26;101385.00;;;23.36;59.76
48553;BME280;34335;51.566;6.994;2022-07-23T09:31:52;101403.81;;;23.09;56.34
48553;BME280;34335;51.566;6.994;2022-07-23T09:34:23;101394.81;;;23.33;55.78
48553;BME280;34335;51.566;6.994;2022-07-23T09:36:50;101399.50;;;24.08;54.99
48553;BME280;34335;51.566;6.994;2022-07-23T09:39:25;101395.34;;;23.81;56.67
48553;BME280;34335;51.566;6.994;2022-07-23T09:41:50;101394.16;;;24.46;58.96
48553;BME280;34335;51.566;6.994;2022-07-23T09:44:18;101382.94;;;25.29;59.23
48553;BME280;34335;51.566;6.994;2022-07-23T09:46:49;101387.81;;;25.03;53.01
48553;BME280;34335;51.566;6.994;2022-07-23T09:49:18;101386.53;;;25.63;58.46
48553;BME280;34335;51.566;6.994;2022-07-23T09:51:45;101375.72;;;25.82;55.83
48553;BME280;34335;51.566;6.994;2022-07-23T09:57:03;101398.53;;;24.84;52.53
48553;BME280;34335;51.566;6.994;2022-07-23T09:59:31;101392.75;;;24.56;54.89
48553;BME280;34335;51.566;6.994;2022-07-23T10:01:59;101398.13;;;24.18;48.66
48553;BME280;34335;51.566;6.994;2022-07-23T10:04:26;101383.28;;;25.23;50.42
48553;BME280;34335;51.566;6.994;2022-07-23T10:06:54;101385.41;;;24.62;53.55
48553;BME280;34335;51.566;6.994;2022-07-23T10:09:27;101387.31;;;25.30;54.21
48553;BME280;34335;51.566;6.994;2022-07-23T10:11:55;101384.09;;;25.74;52.06
48553;BME280;34335;51.566;6.994;2022-07-23T10:14:24;101386.94;;;24.85;50.94
48553;BME280;34335;51.566;6.994;2022-07-23T10:16:50;101382.31;;;26.24;51.03
48553;BME280;34335;51.566;6.994;2022-07-23T10:19:17;101386.84;;;26.22;51.13
48553;BME280;34335;51.566;6.994;2022-07-23T10:21:48;101387.00;;;26.98;53.62
48553;BME280;34335;51.566;6.994;2022-07-23T10:27:05;101385.38;;;26.33;49.05
48553;BME280;34335;51.566;6.994;2022-07-23T10:29:45;101382.34;;;25.91;52.54
48553;BME280;34335;51.566;6.994;2022-07-23T10:37:32;101392.16;;;24.13;49.45
48553;BME280;34335;51.566;6.994;2022-07-23T10:40:13;101378.19;;;26.19;52.96
48553;BME280;34335;51.566;6.994;2022-07-23T10:42:40;101383.75;;;26.30;49.07
48553;BME280;34335;51.566;6.994;2022-07-23T10:47:48;101385.38;;;24.44;47.91
48553;BME280;34335;51.566;6.994;2022-07-23T10:50:18;101384.81;;;25.27;47.67
48553;BME280;34335;51.566;6.994;2022-07-23T10:58:04;101368.28;;;27.43;48.40
48553;BME280;34335;51.566;6.994;2022-07-23T11:00:34;101371.75;;;28.01;47.96
48553;BME280;34335;51.566;6.994;2022-07-23T11:03:02;101381.38;;;27.76;46.48
48553;BME280;34335;51.566;6.994;2022-07-23T11:05:45;101389.56;;;26.99;44.67
48553;BME280;34335;51.566;6.994;2022-07-23T11:08:21;101384.72;;;27.51;47.93
48553;BME280;34335;51.566;6.994;2022-07-23T11:11:10;101385.31;;;26.65;47.73
48553;BME280;34335;51.566;6.994;2022-07-23T11:13:46;101384.31;;;26.98;42.61
48553;BME280;34335;51.566;6.994;2022-07-23T11:16:15;101388.44;;;27.03;47.93
48553;BME280;34335;51.566;6.994;2022-07-23T11:34:45;101380.81;;;27.57;44.87
48553;BME280;34335;51.566;6.994;2022-07-23T11:37:26;101375.50;;;28.13;44.96
48553;BME280;34335;51.566;6.994;2022-07-23T11:39:55;101371.88;;;27.85;45.95
48553;BME280;34335;51.566;6.994;2022-07-23T11:42:21;101379.13;;;26.64;40.77
48553;BME280;34335;51.566;6.994;2022-07-23T11:44:46;101370.25;;;27.25;41.27
48553;BME280;34335;51.566;6.994;2022-07-23T11:47:12;101376.50;;;27.54;42.78
48553;BME280;34335;51.566;6.994;2022-07-23T11:49:39;101362.84;;;27.88;41.11
48553;BME280;34335;51.566;6.994;2022-07-23T11:52:12;101374.50;;;28.56;42.47
48553;BME280;34335;51.566;6.994;2022-07-23T11:54:50;101375.56;;;28.94;43.35
48553;BME280;34335;51.566;6.994;2022-07-23T11:57:17;101378.94;;;28.70;42.60
48553;BME280;34335;51.566;6.994;2022-07-23T11:59:43;101367.88;;;29.53;41.39
48553;BME280;34335;51.566;6.994;2022-07-23T12:02:09;101370.53;;;30.41;42.36
48553;BME280;34335;51.566;6.994;2022-07-23T12:04:42;101376.03;;;29.52;38.82
48553;BME280;34335;51.566;6.994;2022-07-23T12:07:31;101376.47;;;28.39;42.35
48553;BME280;34335;51.566;6.994;2022-07-23T12:09:58;101369.88;;;28.58;43.84
48553;BME280;34335;51.566;6.994;2022-07-23T12:12:24;101370.53;;;29.15;40.15
48553;BME280;34335;51.566;6.994;2022-07-23T12:14:53;101367.31;;;28.84;36.25
48553;BME280;34335;51.566;6.994;2022-07-23T12:17:19;101373.00;;;27.95;39.26
48553;BME280;34335;51.566;6.994;2022-07-23T12:19:46;101364.47;;;28.32;41.40
48553;BME280;34335;51.566;6.994;2022-07-23T12:22:12;101366.25;;;28.59;43.78
48553;BME280;34335;51.566;6.994;2022-07-23T12:25:12;101363.13;;;28.52;42.57
48553;BME280;34335;51.566;6.994;2022-07-23T12:27:38;101364.31;;;28.48;39.80
48553;BME280;34335;51.566;6.994;2022-07-23T12:30:19;101356.50;;;29.63;42.73
48553;BME280;34335;51.566;6.994;2022-07-23T12:32:46;101359.75;;;29.42;37.02
48553;BME280;34335;51.566;6.994;2022-07-23T12:35:12;101370.09;;;28.55;38.31
48553;BME280;34335;51.566;6.994;2022-07-23T12:37:39;101366.72;;;28.38;40.87
48553;BME280;34335;51.566;6.994;2022-07-23T12:40:42;101357.09;;;30.29;42.26
48553;BME280;34335;51.566;6.994;2022-07-23T12:43:11;101361.78;;;29.26;37.15
48553;BME280;34335;51.566;6.994;2022-07-23T12:46:03;101353.13;;;29.85;42.16
48553;BME280;34335;51.566;6.994;2022-07-23T12:48:33;101355.25;;;29.56;41.97
48553;BME280;34335;51.566;6.994;2022-07-23T12:51:39;101358.44;;;30.35;37.79
48553;BME280;34335;51.566;6.994;2022-07-23T12:54:07;101359.75;;;29.92;36.09
48553;BME280;34335;51.566;6.994;2022-07-23T12:56:36;101370.31;;;30.68;39.72
48553;BME280;34335;51.566;6.994;2022-07-23T13:01:33;101367.59;;;29.95;40.29
48553;BME280;34335;51.566;6.994;2022-07-23T13:06:31;101363.50;;;31.22;42.18
48553;BME280;34335;51.566;6.994;2022-07-23T13:08:57;101365.44;;;32.00;37.56
48553;BME280;34335;51.566;6.994;2022-07-23T13:11:23;101368.38;;;31.85;35.73
48553;BME280;34335;51.566;6.994;2022-07-23T13:13:49;101373.72;;;31.06;33.23
48553;BME280;34335;51.566;6.994;2022-07-23T13:16:14;101379.66;;;30.14;41.80
48553;BME280;34335;51.566;6.994;2022-07-23T13:18:39;101366.28;;;31.89;39.32
48553;BME280;34335;51.566;6.994;2022-07-23T13:21:05;101373.16;;;31.82;35.84
48553;BME280;34335;51.566;6.994;2022-07-23T13:23:30;101366.59;;;32.30;38.44
48553;BME280;34335;51.566;6.994;2022-07-23T13:25:55;101368.75;;;31.35;39.16
48553;BME280;34335;51.566;6.994;2022-07-23T13:28:22;101381.00;;;30.57;35.87
48553;BME280;34335;51.566;6.994;2022-07-23T13:30:50;101372.19;;;30.06;40.38
48553;BME280;34335;51.566;6.994;2022-07-23T13:33:17;101379.13;;;31.17;37.45
48553;BME280;34335;51.566;6.994;2022-07-23T13:35:43;101374.41;;;31.78;36.09
48553;BME280;34335;51.566;6.994;2022-07-23T13:38:09;101370.00;;;29.74;37.94
48553;BME280;34335;51.566;6.994;2022-07-23T13:40:37;101367.28;;;31.54;39.09